Time;durP1;ratioP1;P1;durP2;ratioP2;P2;SDS_P1;SDS_P2;PMS_P1;PMS_P2;Temp;Humidity;BMP_temperature;BMP_pressure;BME280_temperature;BME280_humidity;BME280_pressure;Samples;Min_cycle;Max_cycle;Signal;HPM_P1;HPM_P2
2022/11/30 00:01:44;;;;;;;;;;;;;;;;;;5025364;28;19932;-60
2022/11/30 00:04:10;;;;;;;;;;;;;;;;;;5025849;28;19925;-61
2022/11/30 00:12:41;;;;;;;;;;;;;;;;;;5020418;28;20342;-60
2022/11/30 00:15:07;;;;;;;;;;;;;;;;;;5028862;28;20043;-55
2022/11/30 00:17:33;;;;;;;;;;;;;;;;;;5028776;28;20011;-61
2022/11/30 00:19:59;;;;;;;;;;;;;;;;;;5010838;28;20634;-59
2022/11/30 00:22:25;;;;;;;;;;;;;;;;;;5029581;28;19975;-61
2022/11/30 00:24:51;;;;;;;;;;;;;;;;;;5028187;28;20291;-60
2022/11/30 00:27:17;;;;;;;;;;;;;;;;;;5028055;28;19925;-60
2022/11/30 00:29:43;;;;;;;;;;;;;;;;;;5027980;28;20462;-61
2022/11/30 00:32:09;;;;;;;;;;;;;;;;;;5028921;28;19929;-60
2022/11/30 00:34:35;;;;;;;;;;;;;;;;;;5027239;28;19925;-61
2022/11/30 00:37:01;;;;;;;;;;;;;;;;;;5028573;28;19921;-59
2022/11/30 00:39:27;;;;;;;;;;;;;;;;;;5029109;28;19925;-60
2022/11/30 00:41:53;;;;;;;;;;;;;;;;;;5027696;28;19971;-60
2022/11/30 00:44:19;;;;;;;;;;;;;;;;;;5028652;28;20554;-60
2022/11/30 00:46:45;;;;;;;;;;;;;;;;;;5028509;28;19933;-56
2022/11/30 00:49:11;;;;;;;;;;;;;;;;;;5009987;28;20325;-61
2022/11/30 00:51:37;;;;;;;;;;;;;;;;;;5028570;28;19978;-58
2022/11/30 00:54:03;;;;;;;;;;;;;;;;;;5028616;28;19974;-61
2022/11/30 00:56:29;;;;;;;;;;;;;;;;;;5027962;28;20418;-59
2022/11/30 00:58:55;;;;;;;;;;;;;;;;;;5028594;28;19925;-60
2022/11/30 01:01:21;;;;;;;;;;;;;;;;;;5027993;28;19943;-60
2022/11/30 01:03:47;;;;;;;;;;;;;;;;;;5027354;28;19925;-59
2022/11/30 01:06:13;;;;;;;;;;;;;;;;;;5028402;28;19925;-60
2022/11/30 01:08:40;;;;;;;;;;;;;;;;;;5037456;28;20298;-59
2022/11/30 01:11:06;;;;;;;;;;;;;;;;;;5014446;28;19934;-61
2022/11/30 01:13:32;;;;;;;;;;;;;;;;;;5027879;28;20007;-60
2022/11/30 01:15:58;;;;;;;;;;;;;;;;;;5028355;28;20016;-60
2022/11/30 01:18:24;;;;;;;;;;;;;;;;;;5027475;28;19948;-60
2022/11/30 01:20:50;;;;;;;;;;;;;;;;;;5026619;28;20352;-60
2022/11/30 01:23:16;;;;;;;;;;;;;;;;;;5027434;28;19925;-57
2022/11/30 01:25:42;;;;;;;;;;;;;;;;;;5026996;28;19932;-60
2022/11/30 01:28:08;;;;;;;;;;;;;;;;;;5009846;28;19925;-60
2022/11/30 01:30:34;;;;;;;;;;;;;;;;;;5009486;28;19929;-59
2022/11/30 01:33:00;;;;;;;;;;;;;;;;;;5027787;28;19921;-60
2022/11/30 01:35:26;;;;;;;;;;;;;;;;;;5027026;28;19925;-58
2022/11/30 01:37:52;;;;;;;;;;;;;;;;;;5027277;28;19925;-61
2022/11/30 01:40:18;;;;;;;;;;;;;;;;;;5027351;28;20008;-59
2022/11/30 01:42:44;;;;;;;;;;;;;;;;;;5026833;28;19933;-60
2022/11/30 01:45:09;;;;;;;;;;;;;;;;;;5027074;28;19948;-61
2022/11/30 01:47:36;;;;;;;;;;;;;;;;;;5026857;28;20391;-61
2022/11/30 01:50:02;;;;;;;;;;;;;;;;;;5026599;28;19921;-60
2022/11/30 01:52:28;;;;;;;;;;;;;;;;;;5026935;28;19925;-60
2022/11/30 01:54:54;;;;;;;;;;;;;;;;;;5027617;28;20524;-60
2022/11/30 01:57:21;;;;;;;;;;;;;;;;;;5027032;28;19975;-57
2022/11/30 01:59:47;;;;;;;;;;;;;;;;;;5026562;28;20335;-60
2022/11/30 02:02:13;;;;;;;;;;;;;;;;;;5027008;28;20363;-60
2022/11/30 02:04:39;;;;;;;;;;;;;;;;;;5025991;28;19933;-61
2022/11/30 02:07:05;;;;;;;;;;;;;;;;;;5026217;28;19932;-60
2022/11/30 02:09:31;;;;;;;;;;;;;;;;;;5024609;28;20382;-59
2022/11/30 02:11:57;;;;;;;;;;;;;;;;;;5015315;28;19983;-60
2022/11/30 02:14:23;;;;;;;;;;;;;;;;;;5093110;23;20381;-57
2022/11/30 02:16:49;;;;;;;;;;;;;;;;;;5024095;28;19975;-51
2022/11/30 02:19:15;;;;;;;;;;;;;;;;;;5026224;28;19925;-54
2022/11/30 02:21:41;;;;;;;;;;;;;;;;;;5026271;28;19955;-54
2022/11/30 02:24:07;;;;;;;;;;;;;;;;;;5026872;28;19925;-55
2022/11/30 02:26:33;;;;;;;;;;;;;;;;;;5026226;28;20508;-53
2022/11/30 02:28:59;;;;;;;;;;;;;;;;;;5026578;28;19929;-55
2022/11/30 02:31:25;;;;;;;;;;;;;;;;;;5027026;28;19987;-54
2022/11/30 02:33:51;;;;;;;;;;;;;;;;;;5025921;28;19933;-55
2022/11/30 02:36:17;;;;;;;;;;;;;;;;;;5026099;28;19925;-54
2022/11/30 02:38:43;;;;;;;;;;;;;;;;;;5026240;28;19925;-55
2022/11/30 02:41:09;;;;;;;;;;;;;;;;;;5026662;28;19933;-55
2022/11/30 02:43:35;;;;;;;;;;;;;;;;;;5018308;28;19930;-55
2022/11/30 02:46:01;;;;;;;;;;;;;;;;;;5025979;28;20075;-55
2022/11/30 02:48:27;;;;;;;;;;;;;;;;;;5026392;28;19925;-54
2022/11/30 02:50:53;;;;;;;;;;;;;;;;;;5025162;28;19929;-55
2022/11/30 02:53:19;;;;;;;;;;;;;;;;;;5026475;28;20269;-54
2022/11/30 02:55:45;;;;;;;;;;;;;;;;;;5026032;28;19929;-55
2022/11/30 02:58:11;;;;;;;;;;;;;;;;;;5008297;28;19979;-54
2022/11/30 03:00:37;;;;;;;;;;;;;;;;;;5025688;28;20504;-54
2022/11/30 03:03:03;;;;;;;;;;;;;;;;;;5025868;28;19984;-52
2022/11/30 03:05:29;;;;;;;;;;;;;;;;;;5024856;28;19931;-56
2022/11/30 03:07:55;;;;;;;;;;;;;;;;;;5026412;28;20286;-54
2022/11/30 03:10:21;;;;;;;;;;;;;;;;;;5026569;28;19932;-54
2022/11/30 03:12:47;;;;;;;;;;;;;;;;;;5025840;28;19929;-56
2022/11/30 03:15:13;;;;;;;;;;;;;;;;;;5025994;28;20393;-53
2022/11/30 03:17:39;;;;;;;;;;;;;;;;;;5025509;28;19972;-55
2022/11/30 03:20:05;;;;;;;;;;;;;;;;;;5024863;28;20497;-55
2022/11/30 03:22:31;;;;;;;;;;;;;;;;;;5025856;28;19925;-54
2022/11/30 03:24:57;;;;;;;;;;;;;;;;;;5026255;28;19933;-55
2022/11/30 03:27:23;;;;;;;;;;;;;;;;;;5008315;28;20398;-55
2022/11/30 03:29:49;;;;;;;;;;;;;;;;;;5008475;28;19929;-54
2022/11/30 03:32:15;;;;;;;;;;;;;;;;;;5008359;28;19961;-54
2022/11/30 03:34:41;;;;;;;;;;;;;;;;;;5024313;28;20436;-54
2022/11/30 03:37:07;;;;;;;;;;;;;;;;;;5026115;28;20024;-55
2022/11/30 03:39:33;;;;;;;;;;;;;;;;;;5027123;28;20016;-55
2022/11/30 03:41:59;;;;;;;;;;;;;;;;;;5029798;28;19925;-56
2022/11/30 03:44:25;;;;;;;;;;;;;;;;;;5029962;28;19932;-55
2022/11/30 03:46:51;;;;;;;;;;;;;;;;;;5029275;28;19925;-54
2022/11/30 03:49:17;;;;;;;;;;;;;;;;;;5028438;28;20020;-56
2022/11/30 03:51:43;;;;;;;;;;;;;;;;;;5029100;28;19947;-53
2022/11/30 03:54:09;;;;;;;;;;;;;;;;;;5029743;28;19933;-54
2022/11/30 03:56:35;;;;;;;;;;;;;;;;;;5029412;28;19940;-54
2022/11/30 03:59:01;;;;;;;;;;;;;;;;;;5029481;28;20421;-54
2022/11/30 04:01:27;;;;;;;;;;;;;;;;;;5029311;28;19933;-56
2022/11/30 04:03:53;;;;;;;;;;;;;;;;;;5027918;28;20078;-55
2022/11/30 04:06:19;;;;;;;;;;;;;;;;;;5029461;28;20015;-54
2022/11/30 04:08:45;;;;;;;;;;;;;;;;;;5028899;28;19931;-54
2022/11/30 04:11:11;;;;;;;;;;;;;;;;;;5028934;28;19925;-56
2022/11/30 04:13:37;;;;;;;;;;;;;;;;;;5028711;28;20366;-55
2022/11/30 04:16:03;;;;;;;;;;;;;;;;;;5028654;28;19995;-53
2022/11/30 04:18:29;;;;;;;;;;;;;;;;;;5028296;28;20350;-57
2022/11/30 04:20:55;;;;;;;;;;;;;;;;;;5029290;28;20427;-55
2022/11/30 04:23:21;;;;;;;;;;;;;;;;;;5028696;28;19925;-56
2022/11/30 04:25:47;;;;;;;;;;;;;;;;;;5028268;28;20500;-54
2022/11/30 04:28:13;;;;;;;;;;;;;;;;;;5029037;28;19929;-55
2022/11/30 04:30:39;;;;;;;;;;;;;;;;;;5027811;28;20020;-55
2022/11/30 04:33:05;;;;;;;;;;;;;;;;;;5028946;28;19926;-56
2022/11/30 04:35:31;;;;;;;;;;;;;;;;;;5027197;28;20004;-55
2022/11/30 04:37:57;;;;;;;;;;;;;;;;;;5028979;28;19925;-53
2022/11/30 04:40:23;;;;;;;;;;;;;;;;;;5028450;28;20016;-55
2022/11/30 04:42:49;;;;;;;;;;;;;;;;;;5028402;28;19936;-55
2022/11/30 04:45:15;;;;;;;;;;;;;;;;;;5027733;28;19925;-55
2022/11/30 04:47:41;;;;;;;;;;;;;;;;;;5028156;28;20431;-55
2022/11/30 04:50:07;;;;;;;;;;;;;;;;;;5027239;28;19925;-55
2022/11/30 04:52:33;;;;;;;;;;;;;;;;;;5028151;28;20298;-52
2022/11/30 04:54:59;;;;;;;;;;;;;;;;;;5027944;28;19925;-57
2022/11/30 04:57:25;;;;;;;;;;;;;;;;;;5028627;28;19925;-56
2022/11/30 04:59:51;;;;;;;;;;;;;;;;;;5027848;28;19986;-54
2022/11/30 05:02:17;;;;;;;;;;;;;;;;;;5028538;28;20371;-55
2022/11/30 05:04:43;;;;;;;;;;;;;;;;;;5026974;28;19978;-56
2022/11/30 05:07:09;;;;;;;;;;;;;;;;;;5028205;28;19925;-56
2022/11/30 05:09:35;;;;;;;;;;;;;;;;;;5027710;28;20496;-55
2022/11/30 05:12:01;;;;;;;;;;;;;;;;;;5028275;28;19932;-55
2022/11/30 05:14:27;;;;;;;;;;;;;;;;;;5027238;28;19929;-54
2022/11/30 05:16:53;;;;;;;;;;;;;;;;;;5027648;28;20299;-56
2022/11/30 05:19:19;;;;;;;;;;;;;;;;;;5027182;28;20063;-55
2022/11/30 05:21:45;;;;;;;;;;;;;;;;;;5027704;28;19931;-53
2022/11/30 05:24:11;;;;;;;;;;;;;;;;;;5027788;28;20390;-54
2022/11/30 05:26:37;;;;;;;;;;;;;;;;;;5027038;28;19932;-55
2022/11/30 05:29:03;;;;;;;;;;;;;;;;;;5027302;28;20348;-56
2022/11/30 05:31:29;;;;;;;;;;;;;;;;;;5027270;28;20012;-58
2022/11/30 05:33:55;;;;;;;;;;;;;;;;;;5027220;28;19931;-53
2022/11/30 05:36:21;;;;;;;;;;;;;;;;;;5027446;28;20401;-55
2022/11/30 05:38:47;;;;;;;;;;;;;;;;;;5027036;28;19925;-57
2022/11/30 05:41:13;;;;;;;;;;;;;;;;;;5027783;28;19936;-55
2022/11/30 05:43:39;;;;;;;;;;;;;;;;;;5026669;28;19945;-54
2022/11/30 05:46:05;;;;;;;;;;;;;;;;;;5027244;28;19925;-55
2022/11/30 05:48:31;;;;;;;;;;;;;;;;;;5026346;28;19925;-55
2022/11/30 05:50:57;;;;;;;;;;;;;;;;;;5027545;28;19925;-56
2022/11/30 05:53:23;;;;;;;;;;;;;;;;;;5027522;28;19982;-55
2022/11/30 05:55:49;;;;;;;;;;;;;;;;;;5027053;28;19929;-55
2022/11/30 05:58:15;;;;;;;;;;;;;;;;;;5026708;28;19925;-55
2022/11/30 06:00:41;;;;;;;;;;;;;;;;;;5026780;28;19925;-56
2022/11/30 06:03:07;;;;;;;;;;;;;;;;;;5018347;28;19971;-56
2022/11/30 06:05:33;;;;;;;;;;;;;;;;;;5026579;28;19925;-55
2022/11/30 06:07:59;;;;;;;;;;;;;;;;;;5027051;28;20414;-58
2022/11/30 06:10:26;;;;;;;;;;;;;;;;;;5027154;28;19979;-55
2022/11/30 06:12:52;;;;;;;;;;;;;;;;;;5026048;28;19932;-54
2022/11/30 06:15:18;;;;;;;;;;;;;;;;;;5026606;28;19925;-52
2022/11/30 06:17:44;;;;;;;;;;;;;;;;;;5026486;28;20347;-55
2022/11/30 06:20:10;;;;;;;;;;;;;;;;;;5024536;28;19925;-55
2022/11/30 06:22:36;;;;;;;;;;;;;;;;;;5022916;28;20290;-56
2022/11/30 06:25:02;;;;;;;;;;;;;;;;;;5026900;28;20302;-55
2022/11/30 06:27:28;;;;;;;;;;;;;;;;;;5027352;28;19925;-55
2022/11/30 06:29:54;;;;;;;;;;;;;;;;;;5024910;28;20460;-55
2022/11/30 06:32:20;;;;;;;;;;;;;;;;;;5025326;28;20005;-53
2022/11/30 06:34:46;;;;;;;;;;;;;;;;;;5024695;28;19939;-55
2022/11/30 06:37:12;;;;;;;;;;;;;;;;;;5022473;28;20397;-55
2022/11/30 06:39:38;;;;;;;;;;;;;;;;;;5023574;28;19971;-56
2022/11/30 06:42:04;;;;;;;;;;;;;;;;;;5026435;28;19925;-55
2022/11/30 06:44:30;;;;;;;;;;;;;;;;;;5023328;28;19925;-57
2022/11/30 06:46:56;;;;;;;;;;;;;;;;;;5023890;28;19947;-57
2022/11/30 06:49:22;;;;;;;;;;;;;;;;;;5025423;28;20531;-57
2022/11/30 06:51:48;;;;;;;;;;;;;;;;;;5023127;28;20353;-53
2022/11/30 06:54:14;;;;;;;;;;;;;;;;;;5024483;28;20444;-56
2022/11/30 06:56:40;;;;;;;;;;;;;;;;;;5025782;28;20345;-54
2022/11/30 06:59:06;;;;;;;;;;;;;;;;;;5024335;28;20307;-55
2022/11/30 07:01:32;;;;;;;;;;;;;;;;;;5024545;28;19925;-53
2022/11/30 07:03:58;;;;;;;;;;;;;;;;;;5024546;28;19998;-52
2022/11/30 07:06:24;;;;;;;;;;;;;;;;;;5023909;28;19925;-54
2022/11/30 07:08:50;;;;;;;;;;;;;;;;;;5021995;28;20019;-56
2022/11/30 07:11:16;;;;;;;;;;;;;;;;;;5024925;28;20025;-56
2022/11/30 07:13:42;;;;;;;;;;;;;;;;;;5026300;28;20335;-55
2022/11/30 07:16:09;;;;;;;;;;;;;;;;;;5028468;28;20413;-54
2022/11/30 07:18:35;;;;;;;;;;;;;;;;;;5027758;28;20028;-55
2022/11/30 07:21:01;;;;;;;;;;;;;;;;;;5028819;28;19925;-54
2022/11/30 07:26:12;;;;;;;;;;;;;;;;;;5028185;28;19932;-56
2022/11/30 07:28:38;;;;;;;;;;;;;;;;;;5028326;28;19936;-55
2022/11/30 07:31:04;;;;;;;;;;;;;;;;;;5028815;28;19959;-55
2022/11/30 07:33:30;;;;;;;;;;;;;;;;;;5027348;28;19960;-56
2022/11/30 07:35:56;;;;;;;;;;;;;;;;;;5028486;28;19971;-56
2022/11/30 07:38:22;;;;;;;;;;;;;;;;;;5028413;28;19925;-56
2022/11/30 07:40:48;;;;;;;;;;;;;;;;;;5027702;28;19932;-53
2022/11/30 07:43:14;;;;;;;;;;;;;;;;;;5028737;28;20382;-52
2022/11/30 07:45:40;;;;;;;;;;;;;;;;;;5028302;28;19968;-56
2022/11/30 07:48:08;;;;;;;;;;;;;;;;;;5028346;28;19947;-57
2022/11/30 07:50:34;;;;;;;;;;;;;;;;;;5027462;28;20428;-54
2022/11/30 07:53:00;;;;;;;;;;;;;;;;;;5026101;28;19925;-53
2022/11/30 07:55:26;;;;;;;;;;;;;;;;;;5028666;28;19971;-54
2022/11/30 07:57:52;;;;;;;;;;;;;;;;;;5027868;28;20379;-56
2022/11/30 08:00:18;;;;;;;;;;;;;;;;;;5028005;28;20004;-55
2022/11/30 08:02:44;;;;;;;;;;;;;;;;;;5027208;28;20328;-54
2022/11/30 08:05:10;;;;;;;;;;;;;;;;;;5027949;28;19926;-55
2022/11/30 08:07:36;;;;;;;;;;;;;;;;;;5027645;28;20032;-54
2022/11/30 08:10:02;;;;;;;;;;;;;;;;;;5027676;28;20020;-56
2022/11/30 08:12:28;;;;;;;;;;;;;;;;;;5027197;28;19925;-59
2022/11/30 08:14:54;;;;;;;;;;;;;;;;;;5027631;28;20414;-55
2022/11/30 08:17:20;;;;;;;;;;;;;;;;;;5027787;28;20020;-54
2022/11/30 08:19:46;;;;;;;;;;;;;;;;;;5026507;28;19988;-56
2022/11/30 08:22:12;;;;;;;;;;;;;;;;;;5027877;28;19944;-53
2022/11/30 08:24:38;;;;;;;;;;;;;;;;;;5026495;28;19941;-55
2022/11/30 08:27:04;;;;;;;;;;;;;;;;;;5027664;28;19964;-54
2022/11/30 08:29:30;;;;;;;;;;;;;;;;;;5027080;28;19968;-55
2022/11/30 08:31:56;;;;;;;;;;;;;;;;;;5028099;28;19976;-56
2022/11/30 08:34:23;;;;;;;;;;;;;;;;;;5026903;28;20024;-53
2022/11/30 08:36:50;;;;;;;;;;;;;;;;;;5026989;28;20646;-55
2022/11/30 08:39:16;;;;;;;;;;;;;;;;;;5027406;28;19983;-56
2022/11/30 08:41:42;;;;;;;;;;;;;;;;;;5026691;28;20318;-56
2022/11/30 08:44:08;;;;;;;;;;;;;;;;;;5027280;28;19925;-54
2022/11/30 08:46:36;;;;;;;;;;;;;;;;;;5027237;28;20020;-54
2022/11/30 08:49:02;;;;;;;;;;;;;;;;;;5026492;28;19925;-56
2022/11/30 08:51:28;;;;;;;;;;;;;;;;;;5027381;28;19925;-56
2022/11/30 08:53:54;;;;;;;;;;;;;;;;;;5027530;28;19936;-53
2022/11/30 08:56:22;;;;;;;;;;;;;;;;;;5027199;28;19932;-55
2022/11/30 08:58:48;;;;;;;;;;;;;;;;;;5026705;28;20383;-55
2022/11/30 09:01:14;;;;;;;;;;;;;;;;;;5027005;28;19929;-56
2022/11/30 09:03:40;;;;;;;;;;;;;;;;;;5026027;28;19925;-54
2022/11/30 09:06:06;;;;;;;;;;;;;;;;;;5026806;28;20438;-54
2022/11/30 09:08:33;;;;;;;;;;;;;;;;;;5026812;28;19925;-57
2022/11/30 09:10:59;;;;;;;;;;;;;;;;;;5026874;28;19925;-59
2022/11/30 09:13:25;;;;;;;;;;;;;;;;;;5027007;28;20022;-55
2022/11/30 09:15:51;;;;;;;;;;;;;;;;;;5026146;28;19933;-54
2022/11/30 09:18:17;;;;;;;;;;;;;;;;;;5026282;28;20319;-54
2022/11/30 09:20:43;;;;;;;;;;;;;;;;;;5026413;28;19925;-57
2022/11/30 09:23:09;;;;;;;;;;;;;;;;;;5026460;28;19925;-53
2022/11/30 09:25:35;;;;;;;;;;;;;;;;;;5026322;28;19929;-55
2022/11/30 09:28:01;;;;;;;;;;;;;;;;;;5026165;28;20394;-56
2022/11/30 09:30:27;;;;;;;;;;;;;;;;;;5026464;28;19999;-55
2022/11/30 09:32:53;;;;;;;;;;;;;;;;;;5025395;28;19929;-55
2022/11/30 09:35:19;;;;;;;;;;;;;;;;;;5025983;28;19933;-56
2022/11/30 09:37:45;;;;;;;;;;;;;;;;;;5024668;28;19944;-54
2022/11/30 09:40:11;;;;;;;;;;;;;;;;;;5026192;28;19932;-56
2022/11/30 09:42:38;;;;;;;;;;;;;;;;;;5025799;28;20396;-55
2022/11/30 09:45:04;;;;;;;;;;;;;;;;;;5023283;28;19929;-53
2022/11/30 09:47:30;;;;;;;;;;;;;;;;;;5025266;28;19928;-55
2022/11/30 09:49:56;;;;;;;;;;;;;;;;;;5026473;28;20633;-53
2022/11/30 09:52:22;;;;;;;;;;;;;;;;;;5026126;28;19925;-55
2022/11/30 09:54:48;;;;;;;;;;;;;;;;;;5025607;28;19944;-54
2022/11/30 09:57:14;;;;;;;;;;;;;;;;;;5025563;28;19965;-57
2022/11/30 09:59:40;;;;;;;;;;;;;;;;;;5025277;28;20427;-54
2022/11/30 10:02:06;;;;;;;;;;;;;;;;;;5025958;28;19926;-55
2022/11/30 10:04:32;;;;;;;;;;;;;;;;;;5024683;28;20032;-56
2022/11/30 10:06:58;;;;;;;;;;;;;;;;;;5025733;28;20016;-55
2022/11/30 10:09:24;;;;;;;;;;;;;;;;;;5026214;28;19999;-53
2022/11/30 10:11:50;;;;;;;;;;;;;;;;;;5025098;28;19932;-54
2022/11/30 10:14:16;;;;;;;;;;;;;;;;;;5025288;28;19925;-56
2022/11/30 10:16:42;;;;;;;;;;;;;;;;;;5025850;28;20653;-54
2022/11/30 10:19:08;;;;;;;;;;;;;;;;;;5025042;28;19925;-56
2022/11/30 10:21:35;;;;;;;;;;;;;;;;;;5025147;28;19933;-53
2022/11/30 10:24:01;;;;;;;;;;;;;;;;;;5024832;28;19925;-56
2022/11/30 10:26:27;;;;;;;;;;;;;;;;;;5025006;28;19929;-56
2022/11/30 10:28:53;;;;;;;;;;;;;;;;;;5025194;28;20072;-53
2022/11/30 10:31:19;;;;;;;;;;;;;;;;;;5025174;28;19982;-55
2022/11/30 10:33:45;;;;;;;;;;;;;;;;;;5023815;28;19933;-54
2022/11/30 10:36:11;;;;;;;;;;;;;;;;;;5024981;28;19925;-56
2022/11/30 10:38:37;;;;;;;;;;;;;;;;;;5024924;28;20449;-55
2022/11/30 10:41:03;;;;;;;;;;;;;;;;;;5023865;28;19936;-55
2022/11/30 10:43:29;;;;;;;;;;;;;;;;;;5024518;28;19925;-58
2022/11/30 10:45:55;;;;;;;;;;;;;;;;;;5025666;28;19925;-56
2022/11/30 10:48:21;;;;;;;;;;;;;;;;;;5024048;28;19925;-53
2022/11/30 10:50:47;;;;;;;;;;;;;;;;;;5024519;28;20018;-53
2022/11/30 10:53:13;;;;;;;;;;;;;;;;;;5007288;28;19928;-57
2022/11/30 10:55:39;;;;;;;;;;;;;;;;;;5025038;28;20275;-55
2022/11/30 10:58:05;;;;;;;;;;;;;;;;;;5025356;28;19956;-56
2022/11/30 11:00:31;;;;;;;;;;;;;;;;;;5025131;28;19931;-53
2022/11/30 11:02:57;;;;;;;;;;;;;;;;;;5023668;28;20533;-56
2022/11/30 11:05:24;;;;;;;;;;;;;;;;;;5023762;28;20020;-55
2022/11/30 11:07:50;;;;;;;;;;;;;;;;;;5024234;28;19925;-56
2022/11/30 11:10:16;;;;;;;;;;;;;;;;;;5007254;28;19932;-55
2022/11/30 11:12:42;;;;;;;;;;;;;;;;;;5021129;28;19944;-55
2022/11/30 11:15:08;;;;;;;;;;;;;;;;;;5022084;28;19970;-56
2022/11/30 11:17:34;;;;;;;;;;;;;;;;;;5021410;28;19932;-55
2022/11/30 11:20:00;;;;;;;;;;;;;;;;;;5004876;28;20012;-56
2022/11/30 11:22:26;;;;;;;;;;;;;;;;;;5022771;28;20022;-55
2022/11/30 11:24:52;;;;;;;;;;;;;;;;;;5021918;28;20012;-54
2022/11/30 11:27:18;;;;;;;;;;;;;;;;;;5022766;28;19929;-55
2022/11/30 11:29:44;;;;;;;;;;;;;;;;;;5022551;28;19925;-56
2022/11/30 11:32:10;;;;;;;;;;;;;;;;;;5021424;28;19933;-55
2022/11/30 11:34:37;;;;;;;;;;;;;;;;;;5021930;28;19936;-55
2022/11/30 11:37:03;;;;;;;;;;;;;;;;;;5021705;28;19925;-54
2022/11/30 11:39:29;;;;;;;;;;;;;;;;;;5022241;28;19944;-57
2022/11/30 11:41:55;;;;;;;;;;;;;;;;;;5023059;28;19948;-56
2022/11/30 11:44:21;;;;;;;;;;;;;;;;;;5021563;28;19956;-54
2022/11/30 11:46:47;;;;;;;;;;;;;;;;;;5021362;28;20025;-56
2022/11/30 11:49:13;;;;;;;;;;;;;;;;;;5021345;28;19952;-53
2022/11/30 11:51:39;;;;;;;;;;;;;;;;;;5019999;28;19925;-56
2022/11/30 11:54:05;;;;;;;;;;;;;;;;;;5021218;28;20447;-57
2022/11/30 11:56:31;;;;;;;;;;;;;;;;;;5019148;28;20446;-54
2022/11/30 11:58:57;;;;;;;;;;;;;;;;;;5024547;28;19925;-55
2022/11/30 12:01:23;;;;;;;;;;;;;;;;;;5027035;28;20382;-56
2022/11/30 12:03:49;;;;;;;;;;;;;;;;;;5027158;28;19929;-57
2022/11/30 12:06:15;;;;;;;;;;;;;;;;;;5027359;28;19925;-56
2022/11/30 12:08:41;;;;;;;;;;;;;;;;;;5027450;28;20422;-55
2022/11/30 12:11:07;;;;;;;;;;;;;;;;;;5027764;28;20367;-56
2022/11/30 12:13:33;;;;;;;;;;;;;;;;;;5027415;28;19925;-56
2022/11/30 12:15:59;;;;;;;;;;;;;;;;;;5027707;28;19940;-58
2022/11/30 12:18:25;;;;;;;;;;;;;;;;;;5027214;28;19925;-55
2022/11/30 12:20:51;;;;;;;;;;;;;;;;;;5027795;28;20477;-55
2022/11/30 12:23:17;;;;;;;;;;;;;;;;;;5028230;28;19932;-55
2022/11/30 12:25:43;;;;;;;;;;;;;;;;;;5027595;28;19931;-57
2022/11/30 12:28:09;;;;;;;;;;;;;;;;;;5027350;28;19925;-55
2022/11/30 12:30:35;;;;;;;;;;;;;;;;;;5027352;28;20363;-56
2022/11/30 12:33:01;;;;;;;;;;;;;;;;;;5027016;28;19933;-56
2022/11/30 12:35:27;;;;;;;;;;;;;;;;;;5026970;28;19931;-56
2022/11/30 12:37:53;;;;;;;;;;;;;;;;;;5027065;28;19925;-56
2022/11/30 12:40:19;;;;;;;;;;;;;;;;;;5027822;28;19929;-55
2022/11/30 12:42:46;;;;;;;;;;;;;;;;;;5027493;28;19933;-56
2022/11/30 12:45:15;;;;;;;;;;;;;;;;;;5026948;28;20357;-56
2022/11/30 12:47:41;;;;;;;;;;;;;;;;;;5024737;28;19988;-56
2022/11/30 12:50:07;;;;;;;;;;;;;;;;;;5027407;28;19952;-56
2022/11/30 12:52:33;;;;;;;;;;;;;;;;;;5026756;28;19932;-57
2022/11/30 12:54:59;;;;;;;;;;;;;;;;;;5027241;28;20003;-56
2022/11/30 12:57:26;;;;;;;;;;;;;;;;;;5027321;28;20600;-56
2022/11/30 12:59:52;;;;;;;;;;;;;;;;;;5027241;28;20378;-57
2022/11/30 13:02:18;;;;;;;;;;;;;;;;;;5026497;28;19947;-56
2022/11/30 13:04:44;;;;;;;;;;;;;;;;;;5025891;28;19929;-57
2022/11/30 13:07:11;;;;;;;;;;;;;;;;;;5026842;28;19925;-55
2022/11/30 13:09:37;;;;;;;;;;;;;;;;;;5026894;28;19933;-56
2022/11/30 13:12:03;;;;;;;;;;;;;;;;;;5026761;28;19925;-56
2022/11/30 13:14:29;;;;;;;;;;;;;;;;;;5026351;28;19932;-56
2022/11/30 13:16:55;;;;;;;;;;;;;;;;;;5026774;28;19925;-56
2022/11/30 13:19:21;;;;;;;;;;;;;;;;;;5026825;28;19933;-55
2022/11/30 13:21:47;;;;;;;;;;;;;;;;;;5026657;28;20375;-55
2022/11/30 13:24:13;;;;;;;;;;;;;;;;;;5026757;28;19932;-57
2022/11/30 13:26:39;;;;;;;;;;;;;;;;;;5026461;28;19956;-55
2022/11/30 13:29:05;;;;;;;;;;;;;;;;;;5023563;28;19933;-56
2022/11/30 13:31:33;;;;;;;;;;;;;;;;;;5026170;28;19987;-55
2022/11/30 13:33:59;;;;;;;;;;;;;;;;;;5025784;28;19960;-59
2022/11/30 13:36:25;;;;;;;;;;;;;;;;;;5026624;28;19925;-56
2022/11/30 13:38:53;;;;;;;;;;;;;;;;;;5026003;28;19931;-57
2022/11/30 13:41:19;;;;;;;;;;;;;;;;;;5024899;28;19929;-55
2022/11/30 13:43:45;;;;;;;;;;;;;;;;;;5026075;28;19929;-57
2022/11/30 13:46:11;;;;;;;;;;;;;;;;;;5026141;28;19925;-55
2022/11/30 13:48:37;;;;;;;;;;;;;;;;;;5025403;28;20021;-55
2022/11/30 13:51:03;;;;;;;;;;;;;;;;;;5026123;28;19964;-57
2022/11/30 13:53:32;;;;;;;;;;;;;;;;;;5007812;28;19988;-59
2022/11/30 13:55:58;;;;;;;;;;;;;;;;;;5026361;28;19929;-56
2022/11/30 13:58:25;;;;;;;;;;;;;;;;;;5026608;28;19925;-56
2022/11/30 14:00:51;;;;;;;;;;;;;;;;;;5024304;28;19970;-56
2022/11/30 14:03:17;;;;;;;;;;;;;;;;;;5007621;28;20012;-57
2022/11/30 14:05:43;;;;;;;;;;;;;;;;;;5025655;28;20051;-55
2022/11/30 14:08:09;;;;;;;;;;;;;;;;;;5026036;28;19925;-55
2022/11/30 14:10:35;;;;;;;;;;;;;;;;;;5025549;28;20306;-55
2022/11/30 14:13:01;;;;;;;;;;;;;;;;;;5007839;28;19925;-56
2022/11/30 14:15:30;;;;;;;;;;;;;;;;;;5025648;28;19925;-55
2022/11/30 14:17:56;;;;;;;;;;;;;;;;;;5025255;28;19932;-56
2022/11/30 14:20:24;;;;;;;;;;;;;;;;;;5025602;28;19924;-54
2022/11/30 14:22:49;;;;;;;;;;;;;;;;;;5024802;28;20800;-55
2022/11/30 14:25:15;;;;;;;;;;;;;;;;;;5025818;28;19944;-56
2022/11/30 14:27:41;;;;;;;;;;;;;;;;;;5024638;28;19925;-57
2022/11/30 14:30:07;;;;;;;;;;;;;;;;;;5025234;28;19925;-56
2022/11/30 14:32:34;;;;;;;;;;;;;;;;;;5006802;28;19925;-57
2022/11/30 14:35:00;;;;;;;;;;;;;;;;;;5025352;28;20291;-57
2022/11/30 14:37:27;;;;;;;;;;;;;;;;;;5026208;28;19925;-56
2022/11/30 14:39:55;;;;;;;;;;;;;;;;;;5025316;28;19979;-57
2022/11/30 14:42:21;;;;;;;;;;;;;;;;;;5021802;28;19932;-56
2022/11/30 14:44:48;;;;;;;;;;;;;;;;;;5024814;28;20016;-55
2022/11/30 14:47:14;;;;;;;;;;;;;;;;;;5025156;28;20012;-55
2022/11/30 14:49:40;;;;;;;;;;;;;;;;;;5025178;28;19929;-56
2022/11/30 14:52:06;;;;;;;;;;;;;;;;;;5024951;28;19925;-56
2022/11/30 14:54:32;;;;;;;;;;;;;;;;;;5024613;28;19933;-55
2022/11/30 14:56:58;;;;;;;;;;;;;;;;;;5025244;28;20008;-56
2022/11/30 14:59:24;;;;;;;;;;;;;;;;;;5025062;28;20322;-56
2022/11/30 15:01:50;;;;;;;;;;;;;;;;;;5024936;28;19943;-56
2022/11/30 15:04:16;;;;;;;;;;;;;;;;;;5025484;28;19929;-56
2022/11/30 15:06:42;;;;;;;;;;;;;;;;;;5025203;28;19991;-57
2022/11/30 15:09:09;;;;;;;;;;;;;;;;;;5025278;28;20068;-55
2022/11/30 15:11:35;;;;;;;;;;;;;;;;;;5024630;28;19925;-55
2022/11/30 15:14:01;;;;;;;;;;;;;;;;;;5024690;28;20482;-57
2022/11/30 15:16:27;;;;;;;;;;;;;;;;;;5025228;28;20156;-57
2022/11/30 15:18:53;;;;;;;;;;;;;;;;;;5024562;28;19925;-56
2022/11/30 15:21:20;;;;;;;;;;;;;;;;;;5024833;28;19937;-56
2022/11/30 15:23:46;;;;;;;;;;;;;;;;;;5024729;28;19925;-56
2022/11/30 15:26:12;;;;;;;;;;;;;;;;;;5024505;28;19932;-57
2022/11/30 15:28:38;;;;;;;;;;;;;;;;;;5024925;28;19932;-55
2022/11/30 15:31:04;;;;;;;;;;;;;;;;;;5024835;28;20394;-57
2022/11/30 15:33:30;;;;;;;;;;;;;;;;;;5023334;28;20007;-57
2022/11/30 15:35:56;;;;;;;;;;;;;;;;;;5028154;28;20063;-57
2022/11/30 15:38:22;;;;;;;;;;;;;;;;;;5028872;28;20401;-56
2022/11/30 15:40:51;;;;;;;;;;;;;;;;;;5028430;28;19929;-55
2022/11/30 15:43:17;;;;;;;;;;;;;;;;;;5028423;28;19940;-56
2022/11/30 15:45:43;;;;;;;;;;;;;;;;;;5026738;28;19940;-56
2022/11/30 15:48:09;;;;;;;;;;;;;;;;;;5027754;28;20009;-56
2022/11/30 15:50:35;;;;;;;;;;;;;;;;;;5027432;28;19929;-56
2022/11/30 15:53:02;;;;;;;;;;;;;;;;;;5010488;28;19973;-56
2022/11/30 15:55:28;;;;;;;;;;;;;;;;;;5028435;28;19932;-55
2022/11/30 15:57:54;;;;;;;;;;;;;;;;;;5028666;28;19933;-56
2022/11/30 16:00:20;;;;;;;;;;;;;;;;;;5028134;28;20311;-55
2022/11/30 16:02:46;;;;;;;;;;;;;;;;;;5026963;28;19937;-56
2022/11/30 16:05:12;;;;;;;;;;;;;;;;;;5028179;28;19965;-56
2022/11/30 16:07:38;;;;;;;;;;;;;;;;;;5028157;28;19932;-55
2022/11/30 16:10:04;;;;;;;;;;;;;;;;;;5027717;28;20021;-57
2022/11/30 16:12:30;;;;;;;;;;;;;;;;;;5024806;28;19971;-57
2022/11/30 16:14:56;;;;;;;;;;;;;;;;;;5027301;28;19972;-55
2022/11/30 16:17:22;;;;;;;;;;;;;;;;;;5027363;28;20004;-55
2022/11/30 16:19:48;;;;;;;;;;;;;;;;;;5027374;28;20355;-57
2022/11/30 16:22:14;;;;;;;;;;;;;;;;;;5027525;28;19925;-57
2022/11/30 16:24:40;;;;;;;;;;;;;;;;;;5025743;28;19925;-57
2022/11/30 16:27:06;;;;;;;;;;;;;;;;;;5027052;28;20599;-57
2022/11/30 16:29:32;;;;;;;;;;;;;;;;;;5027139;28;19971;-55
2022/11/30 16:31:58;;;;;;;;;;;;;;;;;;5022683;28;19929;-55
2022/11/30 16:34:24;;;;;;;;;;;;;;;;;;5025116;28;19945;-53
2022/11/30 16:36:50;;;;;;;;;;;;;;;;;;5023608;28;19929;-56
2022/11/30 16:39:16;;;;;;;;;;;;;;;;;;5024947;28;19933;-56
2022/11/30 16:41:43;;;;;;;;;;;;;;;;;;5024819;28;19929;-55
2022/11/30 16:44:09;;;;;;;;;;;;;;;;;;5024603;28;19975;-56
2022/11/30 16:46:35;;;;;;;;;;;;;;;;;;5023381;28;19968;-56